馬祖南竿航空站 - ATIS

METAR RCFG 141100Z 01014KT 9999 FEW018 BKN040 16/12 Q1024 NOSIG RMK 04014KT/R21 MAX WND 20KT/R03 01016KT/NJL A3025(A)=

站台狀態:Online
最後更新:2019-12-14 23:45:02